sensor_id;sensor_type;location;lat;lon;timestamp;P1;durP1;ratioP1;P2;durP2;ratioP2
21671;SDS011;10997;52.242;8.168;2023-05-07T00:02:52;27.60;;;21.50;;
21671;SDS011;10997;52.242;8.168;2023-05-07T00:07:53;27.40;;;22.17;;
21671;SDS011;10997;52.242;8.168;2023-05-07T00:12:53;29.33;;;21.92;;
21671;SDS011;10997;52.242;8.168;2023-05-07T00:17:55;29.60;;;22.27;;
21671;SDS011;10997;52.242;8.168;2023-05-07T00:22:55;28.85;;;22.38;;
21671;SDS011;10997;52.242;8.168;2023-05-07T00:27:56;30.38;;;22.60;;
21671;SDS011;10997;52.242;8.168;2023-05-07T00:33:02;26.88;;;21.58;;
21671;SDS011;10997;52.242;8.168;2023-05-07T00:38:03;30.70;;;23.05;;
21671;SDS011;10997;52.242;8.168;2023-05-07T00:43:03;32.28;;;22.90;;
21671;SDS011;10997;52.242;8.168;2023-05-07T00:48:04;33.25;;;24.08;;
21671;SDS011;10997;52.242;8.168;2023-05-07T00:53:05;30.75;;;23.27;;
21671;SDS011;10997;52.242;8.168;2023-05-07T00:58:06;30.75;;;23.42;;
21671;SDS011;10997;52.242;8.168;2023-05-07T01:03:07;28.67;;;22.85;;
21671;SDS011;10997;52.242;8.168;2023-05-07T01:08:07;32.80;;;23.60;;
21671;SDS011;10997;52.242;8.168;2023-05-07T01:13:09;29.13;;;23.10;;
21671;SDS011;10997;52.242;8.168;2023-05-07T01:18:10;34.85;;;25.60;;
21671;SDS011;10997;52.242;8.168;2023-05-07T01:23:11;32.92;;;24.60;;
21671;SDS011;10997;52.242;8.168;2023-05-07T01:28:12;32.85;;;24.25;;
21671;SDS011;10997;52.242;8.168;2023-05-07T01:33:13;34.80;;;25.55;;
21671;SDS011;10997;52.242;8.168;2023-05-07T01:38:16;35.60;;;26.20;;
21671;SDS011;10997;52.242;8.168;2023-05-07T01:43:17;35.17;;;25.95;;
21671;SDS011;10997;52.242;8.168;2023-05-07T01:48:19;37.92;;;26.98;;
21671;SDS011;10997;52.242;8.168;2023-05-07T01:53:20;36.00;;;25.98;;
21671;SDS011;10997;52.242;8.168;2023-05-07T01:58:20;35.70;;;27.67;;
21671;SDS011;10997;52.242;8.168;2023-05-07T02:03:21;38.25;;;28.08;;
21671;SDS011;10997;52.242;8.168;2023-05-07T02:08:22;40.72;;;28.73;;
21671;SDS011;10997;52.242;8.168;2023-05-07T02:13:22;38.60;;;28.50;;
21671;SDS011;10997;52.242;8.168;2023-05-07T02:18:24;38.90;;;28.58;;
21671;SDS011;10997;52.242;8.168;2023-05-07T02:23:25;40.25;;;28.60;;
21671;SDS011;10997;52.242;8.168;2023-05-07T02:28:25;40.47;;;28.80;;
21671;SDS011;10997;52.242;8.168;2023-05-07T02:33:26;41.08;;;29.13;;
21671;SDS011;10997;52.242;8.168;2023-05-07T02:38:27;41.58;;;29.13;;
21671;SDS011;10997;52.242;8.168;2023-05-07T02:43:27;41.72;;;28.92;;
21671;SDS011;10997;52.242;8.168;2023-05-07T02:48:28;39.45;;;29.30;;
21671;SDS011;10997;52.242;8.168;2023-05-07T02:53:29;41.05;;;30.05;;
21671;SDS011;10997;52.242;8.168;2023-05-07T02:58:30;38.53;;;27.92;;
21671;SDS011;10997;52.242;8.168;2023-05-07T03:03:30;36.53;;;28.58;;
21671;SDS011;10997;52.242;8.168;2023-05-07T03:08:31;42.70;;;29.63;;
21671;SDS011;10997;52.242;8.168;2023-05-07T03:13:32;38.28;;;29.30;;
21671;SDS011;10997;52.242;8.168;2023-05-07T03:18:33;42.47;;;30.70;;
21671;SDS011;10997;52.242;8.168;2023-05-07T03:23:33;42.30;;;29.65;;
21671;SDS011;10997;52.242;8.168;2023-05-07T03:28:34;44.20;;;29.48;;
21671;SDS011;10997;52.242;8.168;2023-05-07T03:33:35;40.45;;;30.45;;
21671;SDS011;10997;52.242;8.168;2023-05-07T03:38:39;41.10;;;30.25;;
21671;SDS011;10997;52.242;8.168;2023-05-07T03:43:39;39.70;;;30.45;;
21671;SDS011;10997;52.242;8.168;2023-05-07T03:48:40;44.58;;;31.33;;
21671;SDS011;10997;52.242;8.168;2023-05-07T03:53:40;46.95;;;31.52;;
21671;SDS011;10997;52.242;8.168;2023-05-07T03:58:41;42.65;;;31.85;;
21671;SDS011;10997;52.242;8.168;2023-05-07T04:03:42;47.42;;;31.92;;
21671;SDS011;10997;52.242;8.168;2023-05-07T04:08:42;44.63;;;33.42;;
21671;SDS011;10997;52.242;8.168;2023-05-07T04:13:43;46.70;;;33.03;;
21671;SDS011;10997;52.242;8.168;2023-05-07T04:18:43;49.67;;;35.50;;
21671;SDS011;10997;52.242;8.168;2023-05-07T04:23:46;50.00;;;34.88;;
21671;SDS011;10997;52.242;8.168;2023-05-07T04:28:47;52.05;;;37.30;;
21671;SDS011;10997;52.242;8.168;2023-05-07T04:33:48;48.35;;;34.17;;
21671;SDS011;10997;52.242;8.168;2023-05-07T04:38:48;47.10;;;34.97;;
21671;SDS011;10997;52.242;8.168;2023-05-07T04:43:49;48.17;;;34.80;;
21671;SDS011;10997;52.242;8.168;2023-05-07T04:48:49;49.92;;;35.95;;
21671;SDS011;10997;52.242;8.168;2023-05-07T04:53:51;48.95;;;34.40;;
21671;SDS011;10997;52.242;8.168;2023-05-07T04:58:51;47.75;;;34.53;;
21671;SDS011;10997;52.242;8.168;2023-05-07T05:03:52;47.05;;;34.40;;
21671;SDS011;10997;52.242;8.168;2023-05-07T05:08:53;45.65;;;33.75;;
21671;SDS011;10997;52.242;8.168;2023-05-07T05:13:53;47.55;;;32.92;;
21671;SDS011;10997;52.242;8.168;2023-05-07T05:18:54;47.00;;;33.50;;
21671;SDS011;10997;52.242;8.168;2023-05-07T05:23:54;44.42;;;33.55;;
21671;SDS011;10997;52.242;8.168;2023-05-07T05:28:55;47.72;;;33.20;;
21671;SDS011;10997;52.242;8.168;2023-05-07T05:33:55;44.97;;;32.42;;
21671;SDS011;10997;52.242;8.168;2023-05-07T05:38:56;45.17;;;32.20;;
21671;SDS011;10997;52.242;8.168;2023-05-07T05:43:56;40.97;;;29.70;;
21671;SDS011;10997;52.242;8.168;2023-05-07T05:48:57;44.55;;;31.88;;
21671;SDS011;10997;52.242;8.168;2023-05-07T05:53:58;43.65;;;30.90;;
21671;SDS011;10997;52.242;8.168;2023-05-07T05:58:58;43.78;;;30.33;;
21671;SDS011;10997;52.242;8.168;2023-05-07T06:03:59;40.47;;;29.80;;
21671;SDS011;10997;52.242;8.168;2023-05-07T06:09:06;44.17;;;30.85;;
21671;SDS011;10997;52.242;8.168;2023-05-07T06:14:06;44.28;;;30.08;;
21671;SDS011;10997;52.242;8.168;2023-05-07T06:19:07;43.25;;;30.60;;
21671;SDS011;10997;52.242;8.168;2023-05-07T06:24:07;39.88;;;28.55;;
21671;SDS011;10997;52.242;8.168;2023-05-07T06:29:08;40.70;;;28.67;;
21671;SDS011;10997;52.242;8.168;2023-05-07T06:34:09;41.72;;;29.02;;
21671;SDS011;10997;52.242;8.168;2023-05-07T06:39:14;43.65;;;29.45;;
21671;SDS011;10997;52.242;8.168;2023-05-07T06:44:14;42.08;;;29.23;;
21671;SDS011;10997;52.242;8.168;2023-05-07T06:49:15;41.13;;;28.20;;
21671;SDS011;10997;52.242;8.168;2023-05-07T06:54:15;38.33;;;27.00;;
21671;SDS011;10997;52.242;8.168;2023-05-07T06:59:16;38.33;;;27.05;;
21671;SDS011;10997;52.242;8.168;2023-05-07T07:04:17;37.20;;;26.73;;
21671;SDS011;10997;52.242;8.168;2023-05-07T07:09:17;34.22;;;25.05;;
21671;SDS011;10997;52.242;8.168;2023-05-07T07:14:18;37.20;;;25.58;;
21671;SDS011;10997;52.242;8.168;2023-05-07T07:19:18;36.25;;;25.05;;
21671;SDS011;10997;52.242;8.168;2023-05-07T07:24:20;36.05;;;24.55;;
21671;SDS011;10997;52.242;8.168;2023-05-07T07:29:21;34.33;;;24.20;;
21671;SDS011;10997;52.242;8.168;2023-05-07T07:34:21;35.95;;;24.23;;
21671;SDS011;10997;52.242;8.168;2023-05-07T07:39:22;29.80;;;22.80;;
21671;SDS011;10997;52.242;8.168;2023-05-07T07:44:22;30.10;;;22.38;;
21671;SDS011;10997;52.242;8.168;2023-05-07T07:49:23;33.40;;;23.40;;
21671;SDS011;10997;52.242;8.168;2023-05-07T07:54:24;30.98;;;22.92;;
21671;SDS011;10997;52.242;8.168;2023-05-07T07:59:25;30.98;;;21.77;;
21671;SDS011;10997;52.242;8.168;2023-05-07T08:04:26;30.33;;;21.90;;
21671;SDS011;10997;52.242;8.168;2023-05-07T08:09:26;28.90;;;21.83;;
21671;SDS011;10997;52.242;8.168;2023-05-07T08:14:27;26.17;;;19.17;;
21671;SDS011;10997;52.242;8.168;2023-05-07T08:19:28;28.45;;;21.00;;
21671;SDS011;10997;52.242;8.168;2023-05-07T08:24:28;27.58;;;19.48;;
21671;SDS011;10997;52.242;8.168;2023-05-07T08:29:29;29.02;;;19.77;;
21671;SDS011;10997;52.242;8.168;2023-05-07T08:34:30;27.63;;;19.58;;
21671;SDS011;10997;52.242;8.168;2023-05-07T08:39:30;23.73;;;18.35;;
21671;SDS011;10997;52.242;8.168;2023-05-07T08:44:32;23.67;;;18.02;;
21671;SDS011;10997;52.242;8.168;2023-05-07T08:49:35;25.05;;;18.77;;
21671;SDS011;10997;52.242;8.168;2023-05-07T08:54:37;22.75;;;17.83;;
21671;SDS011;10997;52.242;8.168;2023-05-07T08:59:38;24.02;;;18.05;;
21671;SDS011;10997;52.242;8.168;2023-05-07T09:04:40;26.58;;;20.15;;
21671;SDS011;10997;52.242;8.168;2023-05-07T09:09:40;23.95;;;17.15;;
21671;SDS011;10997;52.242;8.168;2023-05-07T09:14:41;21.05;;;16.38;;
21671;SDS011;10997;52.242;8.168;2023-05-07T09:19:42;22.42;;;17.23;;
21671;SDS011;10997;52.242;8.168;2023-05-07T09:24:47;23.90;;;17.60;;
21671;SDS011;10997;52.242;8.168;2023-05-07T09:29:49;19.58;;;15.65;;
21671;SDS011;10997;52.242;8.168;2023-05-07T09:34:50;19.60;;;16.27;;
21671;SDS011;10997;52.242;8.168;2023-05-07T09:39:50;19.75;;;15.55;;
21671;SDS011;10997;52.242;8.168;2023-05-07T09:44:51;19.20;;;15.73;;
21671;SDS011;10997;52.242;8.168;2023-05-07T09:49:56;21.25;;;16.40;;
21671;SDS011;10997;52.242;8.168;2023-05-07T09:54:59;17.38;;;13.82;;
21671;SDS011;10997;52.242;8.168;2023-05-07T10:00:02;20.05;;;14.35;;
21671;SDS011;10997;52.242;8.168;2023-05-07T10:05:06;16.48;;;13.02;;
21671;SDS011;10997;52.242;8.168;2023-05-07T10:10:08;15.77;;;12.70;;
21671;SDS011;10997;52.242;8.168;2023-05-07T10:15:09;14.93;;;12.02;;
21671;SDS011;10997;52.242;8.168;2023-05-07T10:20:10;17.80;;;12.60;;
21671;SDS011;10997;52.242;8.168;2023-05-07T10:25:16;16.45;;;12.13;;
21671;SDS011;10997;52.242;8.168;2023-05-07T10:35:48;12.57;;;10.32;;
21671;SDS011;10997;52.242;8.168;2023-05-07T10:40:50;12.45;;;10.80;;
21671;SDS011;10997;52.242;8.168;2023-05-07T10:46:09;14.02;;;10.65;;
21671;SDS011;10997;52.242;8.168;2023-05-07T10:51:20;11.95;;;9.57;;
21671;SDS011;10997;52.242;8.168;2023-05-07T11:07:09;12.13;;;9.65;;
21671;SDS011;10997;52.242;8.168;2023-05-07T11:17:52;10.68;;;9.57;;
21671;SDS011;10997;52.242;8.168;2023-05-07T11:22:53;12.05;;;9.07;;
21671;SDS011;10997;52.242;8.168;2023-05-07T11:27:55;12.30;;;9.90;;
21671;SDS011;10997;52.242;8.168;2023-05-07T11:32:57;13.75;;;10.00;;
21671;SDS011;10997;52.242;8.168;2023-05-07T11:37:59;12.68;;;11.25;;
21671;SDS011;10997;52.242;8.168;2023-05-07T11:43:10;13.23;;;9.43;;
21671;SDS011;10997;52.242;8.168;2023-05-07T11:48:11;13.60;;;10.07;;
21671;SDS011;10997;52.242;8.168;2023-05-07T11:53:12;12.88;;;9.45;;
21671;SDS011;10997;52.242;8.168;2023-05-07T11:58:18;12.23;;;9.95;;
21671;SDS011;10997;52.242;8.168;2023-05-07T12:03:21;11.00;;;9.35;;
21671;SDS011;10997;52.242;8.168;2023-05-07T12:08:22;12.05;;;9.68;;
21671;SDS011;10997;52.242;8.168;2023-05-07T12:13:25;10.38;;;8.65;;
21671;SDS011;10997;52.242;8.168;2023-05-07T12:18:26;11.93;;;9.05;;
21671;SDS011;10997;52.242;8.168;2023-05-07T12:23:28;9.85;;;8.65;;
21671;SDS011;10997;52.242;8.168;2023-05-07T12:28:29;10.05;;;8.30;;
21671;SDS011;10997;52.242;8.168;2023-05-07T12:33:30;11.02;;;8.15;;
21671;SDS011;10997;52.242;8.168;2023-05-07T12:38:35;12.30;;;8.18;;
21671;SDS011;10997;52.242;8.168;2023-05-07T12:43:41;16.00;;;11.48;;
21671;SDS011;10997;52.242;8.168;2023-05-07T12:48:44;14.02;;;10.75;;
21671;SDS011;10997;52.242;8.168;2023-05-07T12:53:48;8.80;;;7.90;;
21671;SDS011;10997;52.242;8.168;2023-05-07T12:58:48;8.07;;;7.30;;
21671;SDS011;10997;52.242;8.168;2023-05-07T13:03:49;10.32;;;8.45;;
21671;SDS011;10997;52.242;8.168;2023-05-07T13:08:51;7.43;;;6.63;;
21671;SDS011;10997;52.242;8.168;2023-05-07T13:13:52;8.43;;;7.38;;
21671;SDS011;10997;52.242;8.168;2023-05-07T13:18:52;7.03;;;6.32;;
21671;SDS011;10997;52.242;8.168;2023-05-07T13:23:53;8.75;;;7.00;;
21671;SDS011;10997;52.242;8.168;2023-05-07T13:28:53;8.80;;;7.05;;
21671;SDS011;10997;52.242;8.168;2023-05-07T13:33:54;9.45;;;6.88;;
21671;SDS011;10997;52.242;8.168;2023-05-07T13:38:56;9.27;;;6.82;;
21671;SDS011;10997;52.242;8.168;2023-05-07T13:43:59;7.18;;;6.47;;
21671;SDS011;10997;52.242;8.168;2023-05-07T13:48:59;8.60;;;7.38;;
21671;SDS011;10997;52.242;8.168;2023-05-07T13:54:00;6.68;;;5.68;;
21671;SDS011;10997;52.242;8.168;2023-05-07T13:59:01;7.30;;;6.38;;
21671;SDS011;10997;52.242;8.168;2023-05-07T14:04:02;9.63;;;6.70;;
21671;SDS011;10997;52.242;8.168;2023-05-07T14:09:02;11.02;;;6.30;;
21671;SDS011;10997;52.242;8.168;2023-05-07T14:14:04;7.45;;;5.55;;
21671;SDS011;10997;52.242;8.168;2023-05-07T14:19:04;7.93;;;6.05;;
21671;SDS011;10997;52.242;8.168;2023-05-07T14:24:06;7.47;;;6.70;;
21671;SDS011;10997;52.242;8.168;2023-05-07T14:29:07;7.53;;;6.63;;
21671;SDS011;10997;52.242;8.168;2023-05-07T14:34:08;8.35;;;7.45;;
21671;SDS011;10997;52.242;8.168;2023-05-07T14:39:08;7.57;;;6.78;;
21671;SDS011;10997;52.242;8.168;2023-05-07T14:44:09;11.77;;;10.10;;
21671;SDS011;10997;52.242;8.168;2023-05-07T14:49:10;10.02;;;6.93;;
21671;SDS011;10997;52.242;8.168;2023-05-07T14:54:16;9.10;;;8.20;;
21671;SDS011;10997;52.242;8.168;2023-05-07T14:59:18;7.18;;;6.47;;
21671;SDS011;10997;52.242;8.168;2023-05-07T15:04:20;8.95;;;7.63;;
21671;SDS011;10997;52.242;8.168;2023-05-07T15:09:21;9.00;;;6.97;;
21671;SDS011;10997;52.242;8.168;2023-05-07T15:14:22;8.93;;;7.53;;
21671;SDS011;10997;52.242;8.168;2023-05-07T15:19:22;11.32;;;9.98;;
21671;SDS011;10997;52.242;8.168;2023-05-07T15:24:25;10.45;;;8.68;;
21671;SDS011;10997;52.242;8.168;2023-05-07T15:29:26;11.50;;;10.35;;
21671;SDS011;10997;52.242;8.168;2023-05-07T15:34:27;10.98;;;9.38;;
21671;SDS011;10997;52.242;8.168;2023-05-07T15:39:27;9.77;;;8.40;;
21671;SDS011;10997;52.242;8.168;2023-05-07T15:44:28;9.45;;;8.45;;
21671;SDS011;10997;52.242;8.168;2023-05-07T15:49:30;11.90;;;10.00;;
21671;SDS011;10997;52.242;8.168;2023-05-07T15:54:32;10.25;;;9.15;;
21671;SDS011;10997;52.242;8.168;2023-05-07T15:59:32;10.52;;;9.27;;
21671;SDS011;10997;52.242;8.168;2023-05-07T16:04:34;11.90;;;10.35;;
21671;SDS011;10997;52.242;8.168;2023-05-07T16:09:35;16.25;;;11.98;;
21671;SDS011;10997;52.242;8.168;2023-05-07T16:14:35;10.27;;;9.27;;
21671;SDS011;10997;52.242;8.168;2023-05-07T16:19:36;9.50;;;8.60;;
21671;SDS011;10997;52.242;8.168;2023-05-07T16:24:36;10.93;;;9.05;;
21671;SDS011;10997;52.242;8.168;2023-05-07T16:29:37;11.40;;;8.55;;
21671;SDS011;10997;52.242;8.168;2023-05-07T16:34:38;11.07;;;9.93;;
21671;SDS011;10997;52.242;8.168;2023-05-07T16:39:39;13.20;;;9.30;;
21671;SDS011;10997;52.242;8.168;2023-05-07T16:44:40;9.70;;;8.75;;
21671;SDS011;10997;52.242;8.168;2023-05-07T16:49:40;9.25;;;8.25;;
21671;SDS011;10997;52.242;8.168;2023-05-07T16:54:41;11.25;;;10.10;;
21671;SDS011;10997;52.242;8.168;2023-05-07T16:59:41;9.63;;;8.63;;
21671;SDS011;10997;52.242;8.168;2023-05-07T17:04:42;12.10;;;9.10;;
21671;SDS011;10997;52.242;8.168;2023-05-07T17:09:43;11.50;;;9.45;;
21671;SDS011;10997;52.242;8.168;2023-05-07T17:14:43;10.93;;;9.57;;
21671;SDS011;10997;52.242;8.168;2023-05-07T17:19:44;11.20;;;9.48;;
21671;SDS011;10997;52.242;8.168;2023-05-07T17:24:45;11.35;;;10.13;;
21671;SDS011;10997;52.242;8.168;2023-05-07T17:29:45;9.95;;;8.93;;
21671;SDS011;10997;52.242;8.168;2023-05-07T17:34:46;10.57;;;8.77;;
21671;SDS011;10997;52.242;8.168;2023-05-07T17:39:47;10.82;;;9.15;;
21671;SDS011;10997;52.242;8.168;2023-05-07T17:44:47;12.00;;;10.90;;
21671;SDS011;10997;52.242;8.168;2023-05-07T17:49:48;13.63;;;12.02;;
21671;SDS011;10997;52.242;8.168;2023-05-07T17:54:49;14.82;;;13.27;;
21671;SDS011;10997;52.242;8.168;2023-05-07T17:59:49;13.63;;;12.07;;
21671;SDS011;10997;52.242;8.168;2023-05-07T18:04:50;27.35;;;20.42;;
21671;SDS011;10997;52.242;8.168;2023-05-07T18:09:51;14.43;;;13.02;;
21671;SDS011;10997;52.242;8.168;2023-05-07T18:14:51;13.80;;;12.48;;
21671;SDS011;10997;52.242;8.168;2023-05-07T18:19:52;14.15;;;12.85;;
21671;SDS011;10997;52.242;8.168;2023-05-07T18:24:53;18.25;;;15.52;;
21671;SDS011;10997;52.242;8.168;2023-05-07T18:29:54;14.35;;;12.27;;
21671;SDS011;10997;52.242;8.168;2023-05-07T18:34:55;13.95;;;12.32;;
21671;SDS011;10997;52.242;8.168;2023-05-07T18:39:56;13.75;;;12.43;;
21671;SDS011;10997;52.242;8.168;2023-05-07T18:44:57;13.57;;;12.32;;
21671;SDS011;10997;52.242;8.168;2023-05-07T18:49:57;14.25;;;12.85;;
21671;SDS011;10997;52.242;8.168;2023-05-07T18:54:59;14.45;;;13.02;;
21671;SDS011;10997;52.242;8.168;2023-05-07T19:00:00;14.98;;;13.30;;
21671;SDS011;10997;52.242;8.168;2023-05-07T19:05:01;17.90;;;14.38;;
21671;SDS011;10997;52.242;8.168;2023-05-07T19:10:01;16.02;;;13.57;;
21671;SDS011;10997;52.242;8.168;2023-05-07T19:15:02;17.90;;;13.93;;
21671;SDS011;10997;52.242;8.168;2023-05-07T19:20:03;15.50;;;14.00;;
21671;SDS011;10997;52.242;8.168;2023-05-07T19:25:04;16.05;;;14.35;;
21671;SDS011;10997;52.242;8.168;2023-05-07T19:30:06;16.20;;;13.60;;
21671;SDS011;10997;52.242;8.168;2023-05-07T19:35:08;16.23;;;14.40;;
21671;SDS011;10997;52.242;8.168;2023-05-07T19:40:08;17.73;;;14.32;;
21671;SDS011;10997;52.242;8.168;2023-05-07T19:45:10;15.95;;;14.25;;
21671;SDS011;10997;52.242;8.168;2023-05-07T19:50:10;17.15;;;15.40;;
21671;SDS011;10997;52.242;8.168;2023-05-07T19:55:11;18.17;;;16.27;;
21671;SDS011;10997;52.242;8.168;2023-05-07T20:00:12;19.27;;;16.00;;
21671;SDS011;10997;52.242;8.168;2023-05-07T20:05:13;18.15;;;16.02;;
21671;SDS011;10997;52.242;8.168;2023-05-07T20:10:14;19.30;;;16.10;;
21671;SDS011;10997;52.242;8.168;2023-05-07T20:15:14;18.95;;;16.15;;
21671;SDS011;10997;52.242;8.168;2023-05-07T20:20:15;18.48;;;16.48;;
21671;SDS011;10997;52.242;8.168;2023-05-07T20:25:15;19.48;;;17.40;;
21671;SDS011;10997;52.242;8.168;2023-05-07T20:30:16;18.63;;;16.33;;
21671;SDS011;10997;52.242;8.168;2023-05-07T20:35:19;18.95;;;17.05;;
21671;SDS011;10997;52.242;8.168;2023-05-07T20:40:19;18.27;;;16.48;;
21671;SDS011;10997;52.242;8.168;2023-05-07T20:45:20;17.88;;;15.98;;
21671;SDS011;10997;52.242;8.168;2023-05-07T20:50:24;18.40;;;16.50;;
21671;SDS011;10997;52.242;8.168;2023-05-07T20:55:25;18.63;;;16.70;;
21671;SDS011;10997;52.242;8.168;2023-05-07T21:00:26;19.50;;;17.52;;
21671;SDS011;10997;52.242;8.168;2023-05-07T21:05:26;18.80;;;16.85;;
21671;SDS011;10997;52.242;8.168;2023-05-07T21:10:28;19.48;;;17.42;;
21671;SDS011;10997;52.242;8.168;2023-05-07T21:15:29;19.30;;;16.83;;
21671;SDS011;10997;52.242;8.168;2023-05-07T21:20:29;20.05;;;17.63;;
21671;SDS011;10997;52.242;8.168;2023-05-07T21:25:30;19.83;;;17.73;;
21671;SDS011;10997;52.242;8.168;2023-05-07T21:30:30;20.02;;;17.08;;
21671;SDS011;10997;52.242;8.168;2023-05-07T21:35:31;18.77;;;16.67;;
21671;SDS011;10997;52.242;8.168;2023-05-07T21:40:32;18.80;;;16.80;;
21671;SDS011;10997;52.242;8.168;2023-05-07T21:45:32;18.08;;;16.17;;
21671;SDS011;10997;52.242;8.168;2023-05-07T21:50:33;18.63;;;16.65;;
21671;SDS011;10997;52.242;8.168;2023-05-07T21:55:33;18.90;;;16.90;;
21671;SDS011;10997;52.242;8.168;2023-05-07T22:00:34;19.73;;;17.50;;
21671;SDS011;10997;52.242;8.168;2023-05-07T22:05:35;18.98;;;16.90;;
21671;SDS011;10997;52.242;8.168;2023-05-07T22:10:35;21.63;;;16.83;;
21671;SDS011;10997;52.242;8.168;2023-05-07T22:15:38;19.15;;;17.13;;
21671;SDS011;10997;52.242;8.168;2023-05-07T22:20:38;18.02;;;16.13;;
21671;SDS011;10997;52.242;8.168;2023-05-07T22:25:39;19.27;;;16.42;;
21671;SDS011;10997;52.242;8.168;2023-05-07T22:30:40;18.77;;;16.75;;
21671;SDS011;10997;52.242;8.168;2023-05-07T22:35:40;20.10;;;16.75;;
21671;SDS011;10997;52.242;8.168;2023-05-07T22:40:41;18.20;;;16.30;;
21671;SDS011;10997;52.242;8.168;2023-05-07T22:45:42;18.15;;;16.25;;
21671;SDS011;10997;52.242;8.168;2023-05-07T22:50:42;19.25;;;17.15;;
21671;SDS011;10997;52.242;8.168;2023-05-07T22:55:43;19.35;;;17.15;;
21671;SDS011;10997;52.242;8.168;2023-05-07T23:00:43;19.77;;;17.23;;
21671;SDS011;10997;52.242;8.168;2023-05-07T23:05:45;18.52;;;16.13;;
21671;SDS011;10997;52.242;8.168;2023-05-07T23:10:46;19.75;;;16.13;;
21671;SDS011;10997;52.242;8.168;2023-05-07T23:15:46;18.90;;;16.23;;
21671;SDS011;10997;52.242;8.168;2023-05-07T23:20:47;17.27;;;15.38;;
21671;SDS011;10997;52.242;8.168;2023-05-07T23:25:51;18.90;;;15.80;;
21671;SDS011;10997;52.242;8.168;2023-05-07T23:30:52;18.67;;;16.67;;
21671;SDS011;10997;52.242;8.168;2023-05-07T23:35:59;18.00;;;15.80;;
21671;SDS011;10997;52.242;8.168;2023-05-07T23:41:00;18.80;;;16.17;;
21671;SDS011;10997;52.242;8.168;2023-05-07T23:46:01;19.33;;;16.67;;
21671;SDS011;10997;52.242;8.168;2023-05-07T23:51:01;24.85;;;16.30;;
21671;SDS011;10997;52.242;8.168;2023-05-07T23:56:02;20.60;;;16.20;;
